5 Max
4 km/h
2 Mini

LFMY 222100Z AUTO VRB02KT CAVOK 21/11 Q1014

TAF LFMY 221528Z 2215/2315 CNL